This is the latest recevied weather packets stored in our database for station/object W4BOD. If no packets are shown the sender has not sent any weather packets the latest 10 day(s).
| Time | Temp. | Humidity | Pressure | Rain* | Wind** | Luminosity | Snow |
|---|---|---|---|---|---|---|---|
| 1788139855 | 29.44° C | 74% | 1018.1 hPa | 0 mm | - | 0 W/m² | - |
| 1788139555 | 29.44° C | 73% | 1018 hPa | 0 mm | - | 0 W/m² | - |
| 1788139250 | 29.44° C | 73% | 1018 hPa | 0 mm | - | 0 W/m² | - |
| 1788138949 | 29.44° C | 73% | 1018 hPa | 0 mm | - | 0 W/m² | - |
| 1788138645 | 29.44° C | 74% | 1017.9 hPa | 0 mm | - | 0 W/m² | - |
| 1788138340 | 29.44° C | 74% | 1018.1 hPa | 0 mm | - | 0 W/m² | - |
| 1788138036 | 30° C | 74% | 1017.9 hPa | 0 mm | - | 0 W/m² | - |
| 1788137731 | 30° C | 73% | 1018.1 hPa | 0 mm | - | 0 W/m² | - |
| 1788137430 | 30° C | 72% | 1017.9 hPa | 0 mm | - | 0 W/m² | - |
| 1788137127 | 30° C | 71% | 1018 hPa | 0 mm | - | 0 W/m² | - |
| 1788136822 | 30° C | 71% | 1017.8 hPa | 0 mm | - | 0 W/m² | - |
| 1788136518 | 30° C | 71% | 1017.7 hPa | 0 mm | - | 0 W/m² | - |
| 1788136214 | 30° C | 71% | 1017.7 hPa | 0 mm | - | 0 W/m² | - |
| 1788135912 | 30° C | 71% | 1017.8 hPa | 0 mm | - | 1 W/m² | - |
| 1788135608 | 30.56° C | 69% | 1017.6 hPa | 0 mm | - | 1 W/m² | - |
| 1788135303 | 30.56° C | 69% | 1017.8 hPa | 0 mm | - | 2 W/m² | - |
| 1788135000 | 30.56° C | 69% | 1017.6 hPa | 0 mm | - | 3 W/m² | - |
| 1788134695 | 31.11° C | 69% | 1017.6 hPa | 0 mm | - | 4 W/m² | - |
| 1788134393 | 31.11° C | 70% | 1017.6 hPa | 0 mm | - | 5 W/m² | - |
| 1788134088 | 31.67° C | 68% | 1017.5 hPa | 0 mm | - | 6 W/m² | - |
| 1788133784 | 31.11° C | 66% | 1017.7 hPa | 0 mm | - | 8 W/m² | - |
| 1788133478 | 30.56° C | 70% | 1017.7 hPa | 0 mm | - | 9 W/m² | - |
| 1788133174 | 31.67° C | 66% | 1017.5 hPa | 0 mm | - | 13 W/m² | - |
| 1788132870 | 31.11° C | 64% | 1017.6 hPa | 0 mm | - | 17 W/m² | - |
| 1788132565 | 31.11° C | 71% | 1017.5 hPa | 0 mm | - | 19 W/m² | - |
* Rain latest hour (hover to see other rain measurements)
** Current wind speed in m/s (hover to see current wind gust speed)